Time;durP1;ratioP1;P1;durP2;ratioP2;P2;SDS_P1;SDS_P2;PMS_P1;PMS_P2;Temp;Humidity;BMP_temperature;BMP_pressure;BME280_temperature;BME280_humidity;BME280_pressure;Samples;Min_cycle;Max_cycle;Signal;HPM_P1;HPM_P2
2024/01/06 00:01:13;;;;;;;13.63;7.22;;;;;;;;;;4947383;28;20015;-69
2024/01/06 00:03:39;;;;;;;12.77;6.63;;;;;;;;;;4942113;28;20028;-69
2024/01/06 00:06:04;;;;;;;24.00;6.38;;;;;;;;;;4934509;28;20031;-69
2024/01/06 00:08:29;;;;;;;10.35;6.57;;;;;;;;;;4940873;28;20027;-69
2024/01/06 00:10:55;;;;;;;10.38;5.88;;;;;;;;;;4939995;28;20028;-69
2024/01/06 00:13:20;;;;;;;13.10;6.72;;;;;;;;;;4938609;28;20085;-69
2024/01/06 00:15:45;;;;;;;15.60;7.03;;;;;;;;;;4936659;28;20372;-69
2024/01/06 00:18:10;;;;;;;13.13;6.35;;;;;;;;;;4943768;28;20289;-69
2024/01/06 00:20:35;;;;;;;12.68;6.35;;;;;;;;;;4944707;28;20038;-69
2024/01/06 00:23:01;;;;;;;12.10;6.03;;;;;;;;;;4937617;28;20031;-69
2024/01/06 00:25:26;;;;;;;11.35;5.97;;;;;;;;;;4936887;28;20615;-69
2024/01/06 00:27:51;;;;;;;12.83;5.70;;;;;;;;;;4947869;28;20035;-69
2024/01/06 00:30:16;;;;;;;10.27;5.97;;;;;;;;;;4936864;28;20641;-69
2024/01/06 00:32:41;;;;;;;10.90;4.90;;;;;;;;;;4979406;28;20022;-69
2024/01/06 00:35:07;;;;;;;12.60;6.13;;;;;;;;;;4936662;28;20345;-68
2024/01/06 00:37:32;;;;;;;15.82;6.10;;;;;;;;;;4937464;28;20027;-69
2024/01/06 00:39:57;;;;;;;8.23;4.77;;;;;;;;;;4933719;28;20525;-68
2024/01/06 00:42:22;;;;;;;12.83;6.87;;;;;;;;;;4941886;28;20335;-69
2024/01/06 00:44:47;;;;;;;14.93;6.30;;;;;;;;;;4954639;28;20759;-69
2024/01/06 00:47:13;;;;;;;16.35;7.93;;;;;;;;;;4972853;28;20414;-69
2024/01/06 00:49:38;;;;;;;14.77;5.85;;;;;;;;;;4935175;28;20024;-69
2024/01/06 00:52:03;;;;;;;11.07;5.95;;;;;;;;;;4946425;28;20035;-68
2024/01/06 00:54:29;;;;;;;14.90;7.28;;;;;;;;;;4943462;28;20106;-69
2024/01/06 00:56:54;;;;;;;10.52;4.93;;;;;;;;;;4945068;28;20024;-69
2024/01/06 00:59:19;;;;;;;13.73;7.53;;;;;;;;;;4946637;28;20050;-69
2024/01/06 01:01:44;;;;;;;14.73;7.67;;;;;;;;;;4938021;28;20023;-69
2024/01/06 01:04:09;;;;;;;15.53;7.77;;;;;;;;;;4964794;28;20785;-69
2024/01/06 01:06:36;;;;;;;12.97;8.20;;;;;;;;;;4940878;28;20271;-70
2024/01/06 01:09:02;;;;;;;18.83;9.57;;;;;;;;;;4945309;28;20877;-69
2024/01/06 01:11:27;;;;;;;16.42;9.35;;;;;;;;;;4938962;28;20102;-69
2024/01/06 01:13:53;;;;;;;18.70;7.43;;;;;;;;;;4940939;28;20046;-69
2024/01/06 01:16:18;;;;;;;14.98;8.02;;;;;;;;;;4968830;28;20026;-68
2024/01/06 01:18:43;;;;;;;15.97;8.23;;;;;;;;;;4964990;28;20032;-69
2024/01/06 01:21:08;;;;;;;18.45;8.63;;;;;;;;;;4951308;28;20623;-69
2024/01/06 01:23:34;;;;;;;21.85;9.23;;;;;;;;;;4941170;28;20035;-69
2024/01/06 01:25:59;;;;;;;19.27;8.80;;;;;;;;;;4942311;28;20043;-69
2024/01/06 01:28:24;;;;;;;21.52;8.15;;;;;;;;;;4946640;28;20016;-69
2024/01/06 01:30:49;;;;;;;25.80;10.57;;;;;;;;;;4939849;28;20035;-69
2024/01/06 01:33:14;;;;;;;17.20;9.30;;;;;;;;;;4940581;28;20357;-69
2024/01/06 01:35:40;;;;;;;18.93;9.00;;;;;;;;;;4954385;28;20029;-70
2024/01/06 01:38:06;;;;;;;15.32;8.68;;;;;;;;;;4953900;28;20267;-69
2024/01/06 01:40:31;;;;;;;18.95;9.57;;;;;;;;;;4941248;28;20031;-69
2024/01/06 01:42:57;;;;;;;18.53;8.17;;;;;;;;;;4944740;28;20090;-68
2024/01/06 01:45:22;;;;;;;20.33;9.13;;;;;;;;;;4939126;28;20847;-68
2024/01/06 01:47:47;;;;;;;24.65;9.93;;;;;;;;;;4941920;28;20346;-68
2024/01/06 01:50:13;;;;;;;18.07;9.47;;;;;;;;;;4943150;28;20023;-68
2024/01/06 01:52:39;;;;;;;21.60;10.23;;;;;;;;;;4947875;28;20268;-68
2024/01/06 01:55:04;;;;;;;20.27;9.50;;;;;;;;;;4934106;28;20024;-68
2024/01/06 01:57:30;;;;;;;18.38;9.73;;;;;;;;;;4929561;28;20034;-68
2024/01/06 01:59:55;;;;;;;21.40;11.05;;;;;;;;;;4947820;28;20031;-68
2024/01/06 02:02:21;;;;;;;20.30;10.45;;;;;;;;;;4938395;28;20023;-68
2024/01/06 02:04:46;;;;;;;21.63;10.63;;;;;;;;;;4936604;28;20023;-68
2024/01/06 02:07:11;;;;;;;23.67;11.05;;;;;;;;;;4939975;28;20031;-68
2024/01/06 02:09:37;;;;;;;17.53;9.00;;;;;;;;;;4957487;28;20027;-69
2024/01/06 02:12:02;;;;;;;21.50;11.40;;;;;;;;;;4949831;28;20361;-68
2024/01/06 02:14:27;;;;;;;21.65;11.73;;;;;;;;;;4940426;28;20023;-69
2024/01/06 02:16:53;;;;;;;28.52;11.23;;;;;;;;;;4944671;28;20495;-69
2024/01/06 02:19:18;;;;;;;23.53;11.43;;;;;;;;;;4933014;28;20031;-69
2024/01/06 02:21:44;;;;;;;23.08;11.93;;;;;;;;;;4937997;28;20274;-69
2024/01/06 02:24:09;;;;;;;26.23;12.93;;;;;;;;;;4935955;28;20115;-69
2024/01/06 02:26:34;;;;;;;24.30;12.45;;;;;;;;;;4968562;28;20529;-69
2024/01/06 02:28:59;;;;;;;32.83;13.35;;;;;;;;;;4934579;28;20039;-69
2024/01/06 02:31:25;;;;;;;27.83;12.13;;;;;;;;;;4942760;28;20098;-69
2024/01/06 02:33:50;;;;;;;23.95;12.32;;;;;;;;;;4940539;28;20263;-69
2024/01/06 02:36:15;;;;;;;24.85;12.60;;;;;;;;;;4943953;28;20073;-69
2024/01/06 02:38:40;;;;;;;28.90;13.27;;;;;;;;;;4942001;28;20779;-69
2024/01/06 02:41:05;;;;;;;25.27;11.77;;;;;;;;;;4961831;28;20352;-69
2024/01/06 02:43:31;;;;;;;24.85;12.38;;;;;;;;;;4954045;28;20016;-70
2024/01/06 02:45:56;;;;;;;28.77;12.00;;;;;;;;;;4947110;28;20023;-70
2024/01/06 02:48:21;;;;;;;27.83;12.40;;;;;;;;;;4931361;28;20793;-70
2024/01/06 02:50:46;;;;;;;25.23;12.30;;;;;;;;;;4942341;28;20280;-69
2024/01/06 02:53:12;;;;;;;27.80;12.50;;;;;;;;;;4959739;28;20031;-69
2024/01/06 02:55:37;;;;;;;28.08;11.75;;;;;;;;;;4936311;28;20260;-70
2024/01/06 02:58:03;;;;;;;30.10;12.32;;;;;;;;;;4942809;28;20358;-70
2024/01/06 03:00:28;;;;;;;30.35;14.45;;;;;;;;;;4937111;28;20073;-70
2024/01/06 03:02:53;;;;;;;31.25;13.27;;;;;;;;;;4938781;28;20483;-70
2024/01/06 03:05:18;;;;;;;33.20;13.60;;;;;;;;;;4945625;28;20023;-70
2024/01/06 03:07:44;;;;;;;26.37;13.97;;;;;;;;;;4936939;28;20256;-70
2024/01/06 03:10:09;;;;;;;29.20;13.48;;;;;;;;;;4944883;28;20735;-69
2024/01/06 03:12:34;;;;;;;25.17;11.90;;;;;;;;;;4941637;28;20058;-70
2024/01/06 03:14:59;;;;;;;25.80;12.87;;;;;;;;;;4935677;28;20051;-69
2024/01/06 03:17:25;;;;;;;27.30;12.93;;;;;;;;;;4949847;28;20371;-70
2024/01/06 03:19:50;;;;;;;25.77;13.18;;;;;;;;;;4944032;28;20028;-69
2024/01/06 03:22:15;;;;;;;31.67;13.33;;;;;;;;;;4946478;28;20636;-69
2024/01/06 03:24:40;;;;;;;30.00;13.93;;;;;;;;;;4941526;28;20279;-69
2024/01/06 03:27:05;;;;;;;27.73;13.00;;;;;;;;;;4942396;28;20267;-69
2024/01/06 03:29:30;;;;;;;27.80;13.57;;;;;;;;;;4945495;28;20267;-69
2024/01/06 03:31:56;;;;;;;24.77;12.57;;;;;;;;;;4944913;28;20034;-69
2024/01/06 03:34:21;;;;;;;25.08;12.35;;;;;;;;;;4943169;28;20651;-69
2024/01/06 03:36:46;;;;;;;28.00;13.63;;;;;;;;;;4949809;28;20483;-69
2024/01/06 03:39:13;;;;;;;25.93;12.47;;;;;;;;;;4948223;28;20031;-69
2024/01/06 03:41:38;;;;;;;29.33;12.07;;;;;;;;;;4941359;28;20262;-69
2024/01/06 03:44:03;;;;;;;25.27;12.77;;;;;;;;;;4948941;28;20023;-69
2024/01/06 03:46:28;;;;;;;26.58;12.02;;;;;;;;;;4948896;28;20107;-69
2024/01/06 03:48:54;;;;;;;31.60;13.60;;;;;;;;;;4938436;28;20034;-69
2024/01/06 03:51:19;;;;;;;28.90;13.00;;;;;;;;;;4935275;28;20630;-69
2024/01/06 03:53:44;;;;;;;32.70;13.93;;;;;;;;;;4955491;28;20032;-69
2024/01/06 03:56:09;;;;;;;28.02;13.50;;;;;;;;;;4933336;28;20298;-69
2024/01/06 03:58:35;;;;;;;28.50;13.13;;;;;;;;;;4936601;28;20713;-69
2024/01/06 04:01:00;;;;;;;31.20;15.07;;;;;;;;;;4936244;28;20099;-69
2024/01/06 04:03:25;;;;;;;27.67;13.30;;;;;;;;;;4943860;28;20547;-69
2024/01/06 04:05:50;;;;;;;30.60;14.10;;;;;;;;;;4942595;28;20028;-69
2024/01/06 04:08:15;;;;;;;37.43;14.30;;;;;;;;;;4940607;28;20023;-69
2024/01/06 04:10:41;;;;;;;29.98;14.00;;;;;;;;;;4930141;28;20255;-69
2024/01/06 04:13:06;;;;;;;36.60;15.18;;;;;;;;;;4942991;28;20417;-69
2024/01/06 04:15:32;;;;;;;38.75;17.33;;;;;;;;;;4940612;28;20031;-69
2024/01/06 04:18:01;;;;;;;50.42;22.58;;;;;;;;;;4946346;28;20486;-69
2024/01/06 04:20:26;;;;;;;44.00;18.90;;;;;;;;;;4943639;28;20034;-69
2024/01/06 04:22:51;;;;;;;47.17;18.43;;;;;;;;;;4948095;28;20470;-69
2024/01/06 04:25:16;;;;;;;44.53;17.50;;;;;;;;;;4939098;28;20308;-69
2024/01/06 04:27:41;;;;;;;50.77;19.53;;;;;;;;;;4944496;28;20611;-69
2024/01/06 04:30:07;;;;;;;47.80;19.02;;;;;;;;;;4946577;28;20263;-69
2024/01/06 04:32:32;;;;;;;46.58;19.45;;;;;;;;;;4937254;28;20027;-69
2024/01/06 04:34:57;;;;;;;58.28;21.77;;;;;;;;;;4932235;28;20028;-69
2024/01/06 04:37:22;;;;;;;55.22;20.65;;;;;;;;;;4948083;28;20371;-69
2024/01/06 04:39:48;;;;;;;49.95;20.20;;;;;;;;;;4933628;28;20091;-69
2024/01/06 04:42:13;;;;;;;56.63;22.53;;;;;;;;;;4928852;28;20494;-68
2024/01/06 04:44:38;;;;;;;79.07;27.73;;;;;;;;;;4935311;28;20251;-69
2024/01/06 04:47:03;;;;;;;57.57;22.20;;;;;;;;;;4939669;28;20696;-69
2024/01/06 04:49:28;;;;;;;59.50;21.20;;;;;;;;;;4942783;28;20291;-69
2024/01/06 04:51:54;;;;;;;55.63;21.00;;;;;;;;;;4944065;28;20371;-69
2024/01/06 04:54:19;;;;;;;53.53;20.85;;;;;;;;;;4942701;28;20267;-68
2024/01/06 04:56:44;;;;;;;57.10;21.13;;;;;;;;;;4944519;28;20023;-69
2024/01/06 04:59:09;;;;;;;59.53;21.37;;;;;;;;;;4930107;28;20282;-69
2024/01/06 05:01:34;;;;;;;55.90;20.37;;;;;;;;;;4928348;28;20279;-69
2024/01/06 05:04:00;;;;;;;62.60;23.27;;;;;;;;;;4931545;28;20744;-69
2024/01/06 05:06:25;;;;;;;66.05;20.70;;;;;;;;;;4936076;28;20268;-69
2024/01/06 05:08:50;;;;;;;63.50;24.23;;;;;;;;;;4931282;28;20028;-69
2024/01/06 05:11:15;;;;;;;69.30;21.55;;;;;;;;;;4934423;28;21155;-69
2024/01/06 05:13:40;;;;;;;60.90;23.10;;;;;;;;;;4945007;28;20497;-69
2024/01/06 05:16:06;;;;;;;52.80;20.02;;;;;;;;;;4939867;28;20604;-69
2024/01/06 05:18:31;;;;;;;52.58;19.83;;;;;;;;;;4938650;28;20080;-69
2024/01/06 05:20:56;;;;;;;52.47;18.60;;;;;;;;;;4945538;28;20028;-69
2024/01/06 05:23:22;;;;;;;54.80;16.30;;;;;;;;;;4941045;28;20266;-69
2024/01/06 05:25:47;;;;;;;51.08;19.40;;;;;;;;;;4938986;28;20019;-69
2024/01/06 05:28:12;;;;;;;45.60;15.53;;;;;;;;;;4932974;28;20390;-69
2024/01/06 05:30:37;;;;;;;37.10;15.10;;;;;;;;;;4939760;28;20347;-69
2024/01/06 05:33:03;;;;;;;36.60;14.40;;;;;;;;;;4964422;28;20286;-69
2024/01/06 05:35:28;;;;;;;39.00;15.10;;;;;;;;;;4931564;28;20020;-69
2024/01/06 05:37:54;;;;;;;36.28;12.10;;;;;;;;;;4925609;28;20036;-69
2024/01/06 05:40:19;;;;;;;36.65;13.57;;;;;;;;;;4929260;28;20106;-69
2024/01/06 05:42:44;;;;;;;29.50;11.57;;;;;;;;;;4947585;28;20392;-69
2024/01/06 05:45:15;;;;;;;36.03;11.30;;;;;;;;;;4928502;28;20281;-69
2024/01/06 05:47:40;;;;;;;35.35;12.18;;;;;;;;;;4938920;28;20256;-69
2024/01/06 05:50:07;;;;;;;35.83;12.02;;;;;;;;;;4928917;28;20032;-69
2024/01/06 05:52:32;;;;;;;32.88;11.73;;;;;;;;;;4958545;28;20020;-69
2024/01/06 05:54:58;;;;;;;36.55;13.45;;;;;;;;;;4935180;28;20023;-69
2024/01/06 05:57:23;;;;;;;32.95;12.48;;;;;;;;;;4934113;28;20101;-69
2024/01/06 05:59:48;;;;;;;31.50;11.90;;;;;;;;;;4940857;28;20442;-69
2024/01/06 06:02:14;;;;;;;31.05;10.50;;;;;;;;;;4929020;28;20016;-69
2024/01/06 06:04:39;;;;;;;31.93;11.77;;;;;;;;;;4928810;28;20023;-69
2024/01/06 06:07:04;;;;;;;33.72;11.95;;;;;;;;;;4931391;28;20279;-69
2024/01/06 06:09:29;;;;;;;27.00;9.90;;;;;;;;;;4932233;28;20545;-69
2024/01/06 06:11:54;;;;;;;20.23;8.50;;;;;;;;;;4932579;28;20299;-69
2024/01/06 06:14:19;;;;;;;18.63;7.10;;;;;;;;;;4939092;28;20091;-69
2024/01/06 06:16:45;;;;;;;19.57;7.87;;;;;;;;;;4946141;28;20777;-69
2024/01/06 06:19:10;;;;;;;19.17;7.00;;;;;;;;;;4931734;28;20262;-69
2024/01/06 06:21:35;;;;;;;21.93;8.00;;;;;;;;;;4932998;28;20023;-69
2024/01/06 06:24:00;;;;;;;19.95;6.70;;;;;;;;;;4932359;28;20270;-69
2024/01/06 06:26:27;;;;;;;26.80;7.70;;;;;;;;;;4932796;28;20085;-69
2024/01/06 06:28:52;;;;;;;22.75;7.72;;;;;;;;;;4932157;28;20267;-69
2024/01/06 06:31:17;;;;;;;25.83;8.57;;;;;;;;;;4938963;28;20394;-69
2024/01/06 06:33:42;;;;;;;23.37;7.80;;;;;;;;;;4939708;28;20299;-69
2024/01/06 06:36:08;;;;;;;22.00;8.40;;;;;;;;;;4932466;28;20267;-69
2024/01/06 06:38:33;;;;;;;23.20;8.57;;;;;;;;;;4932189;28;20275;-69
2024/01/06 06:40:58;;;;;;;24.25;7.78;;;;;;;;;;4932683;28;20039;-69
2024/01/06 06:43:23;;;;;;;24.02;8.05;;;;;;;;;;4931798;28;20032;-69
2024/01/06 06:45:49;;;;;;;24.73;8.18;;;;;;;;;;4931630;28;20051;-69
2024/01/06 06:48:14;;;;;;;27.83;8.93;;;;;;;;;;4939971;28;20034;-69
2024/01/06 06:50:41;;;;;;;25.20;8.48;;;;;;;;;;4936159;28;20264;-69
2024/01/06 06:53:06;;;;;;;33.13;10.20;;;;;;;;;;4972272;28;20052;-69
2024/01/06 06:55:31;;;;;;;28.20;9.63;;;;;;;;;;4932145;28;20518;-69
2024/01/06 06:57:56;;;;;;;23.80;9.27;;;;;;;;;;4931619;28;20023;-69
2024/01/06 07:00:21;;;;;;;25.33;9.00;;;;;;;;;;4931634;28;20378;-69
2024/01/06 07:02:47;;;;;;;30.30;9.77;;;;;;;;;;4931713;28;20295;-69
2024/01/06 07:05:12;;;;;;;39.63;14.25;;;;;;;;;;4943816;28;20015;-69
2024/01/06 07:07:38;;;;;;;31.75;11.27;;;;;;;;;;4933273;28;20024;-69
2024/01/06 07:10:04;;;;;;;34.08;11.45;;;;;;;;;;4931789;28;20064;-69
2024/01/06 07:12:30;;;;;;;39.50;12.13;;;;;;;;;;4932343;28;20059;-69
2024/01/06 07:14:55;;;;;;;32.28;10.80;;;;;;;;;;4932474;28;20043;-69
2024/01/06 07:17:20;;;;;;;29.60;10.33;;;;;;;;;;4931123;28;20157;-69
2024/01/06 07:19:45;;;;;;;31.00;11.47;;;;;;;;;;4931064;28;20353;-69
2024/01/06 07:22:11;;;;;;;33.22;11.73;;;;;;;;;;4940246;28;20256;-69
2024/01/06 07:24:36;;;;;;;32.55;11.55;;;;;;;;;;4932320;28;20477;-69
2024/01/06 07:27:01;;;;;;;33.25;11.65;;;;;;;;;;4970681;28;20389;-69
2024/01/06 07:29:26;;;;;;;35.75;12.73;;;;;;;;;;4947403;28;20472;-69
2024/01/06 07:31:51;;;;;;;31.20;11.97;;;;;;;;;;4934038;28;20030;-69
2024/01/06 07:34:17;;;;;;;30.00;11.50;;;;;;;;;;4946994;28;20260;-69
2024/01/06 07:36:42;;;;;;;46.10;13.70;;;;;;;;;;5018687;28;20309;-69
2024/01/06 07:39:07;;;;;;;40.28;11.70;;;;;;;;;;4934470;28;20016;-69
2024/01/06 07:41:32;;;;;;;41.78;13.27;;;;;;;;;;4935666;28;20027;-69
2024/01/06 07:43:58;;;;;;;37.50;13.25;;;;;;;;;;4938232;28;20020;-69
2024/01/06 07:46:23;;;;;;;38.65;12.32;;;;;;;;;;4932281;28;20023;-69
2024/01/06 07:48:48;;;;;;;31.08;11.48;;;;;;;;;;4931132;28;20237;-69
2024/01/06 07:51:14;;;;;;;35.10;11.60;;;;;;;;;;4929717;28;20477;-69
2024/01/06 07:53:39;;;;;;;33.78;11.48;;;;;;;;;;4930928;28;20274;-69
2024/01/06 07:56:04;;;;;;;37.78;13.25;;;;;;;;;;4937264;28;20024;-69
2024/01/06 07:58:30;;;;;;;33.70;12.32;;;;;;;;;;4928946;28;20035;-69
2024/01/06 08:00:55;;;;;;;35.17;12.43;;;;;;;;;;4933487;28;20113;-69
2024/01/06 08:03:20;;;;;;;38.42;13.25;;;;;;;;;;4963492;28;20274;-69
2024/01/06 08:05:46;;;;;;;37.77;13.33;;;;;;;;;;4930350;28;20491;-69
2024/01/06 08:08:12;;;;;;;33.08;11.88;;;;;;;;;;4928318;28;20290;-69
2024/01/06 08:10:38;;;;;;;37.40;12.93;;;;;;;;;;4932987;28;20541;-69
2024/01/06 08:13:03;;;;;;;30.83;11.37;;;;;;;;;;4927033;28;20036;-69
2024/01/06 08:15:29;;;;;;;35.72;12.25;;;;;;;;;;4930662;28;20276;-69
2024/01/06 08:17:54;;;;;;;34.10;12.40;;;;;;;;;;4935498;28;20490;-69
2024/01/06 08:20:19;;;;;;;35.72;11.75;;;;;;;;;;4930383;28;20287;-69
2024/01/06 08:22:44;;;;;;;31.30;11.13;;;;;;;;;;4929576;28;20067;-69
2024/01/06 08:25:10;;;;;;;31.60;11.23;;;;;;;;;;4932211;28;20258;-69
2024/01/06 08:27:35;;;;;;;35.22;11.52;;;;;;;;;;4926270;28;20326;-69
2024/01/06 08:30:01;;;;;;;29.50;11.60;;;;;;;;;;4935870;28;20035;-69
2024/01/06 08:32:26;;;;;;;34.63;11.13;;;;;;;;;;4928719;28;20024;-69
2024/01/06 08:34:52;;;;;;;50.30;14.63;;;;;;;;;;4980653;28;20029;-69
2024/01/06 08:37:17;;;;;;;33.70;12.20;;;;;;;;;;4922439;28;20291;-69
2024/01/06 08:39:42;;;;;;;31.13;11.87;;;;;;;;;;4928471;28;20023;-69
2024/01/06 08:42:07;;;;;;;31.87;11.37;;;;;;;;;;4938009;28;20303;-69
2024/01/06 08:44:32;;;;;;;31.85;11.23;;;;;;;;;;4934312;28;20282;-69
2024/01/06 08:46:57;;;;;;;35.35;12.35;;;;;;;;;;4929704;28;20034;-70
2024/01/06 08:49:23;;;;;;;34.15;11.40;;;;;;;;;;4927655;28;20042;-70
2024/01/06 08:51:48;;;;;;;33.63;12.50;;;;;;;;;;4930633;28;20036;-69
2024/01/06 08:54:13;;;;;;;37.25;12.93;;;;;;;;;;4941744;28;20802;-69
2024/01/06 08:56:38;;;;;;;32.05;10.45;;;;;;;;;;4932313;28;20016;-70
2024/01/06 08:59:04;;;;;;;41.10;12.48;;;;;;;;;;4931016;28;20041;-69
2024/01/06 09:01:29;;;;;;;36.53;12.25;;;;;;;;;;4931600;28;20020;-69
2024/01/06 09:03:54;;;;;;;30.83;11.38;;;;;;;;;;4931748;28;20039;-70
2024/01/06 09:06:19;;;;;;;27.95;11.30;;;;;;;;;;4930947;28;20038;-69
2024/01/06 09:08:44;;;;;;;29.02;10.70;;;;;;;;;;4932742;28;20131;-70
2024/01/06 09:11:09;;;;;;;30.30;10.93;;;;;;;;;;4932173;28;20030;-69
2024/01/06 09:13:35;;;;;;;30.40;11.85;;;;;;;;;;4930482;28;20020;-70
2024/01/06 09:16:02;;;;;;;34.92;12.88;;;;;;;;;;4932087;28;20040;-70
2024/01/06 09:18:28;;;;;;;42.08;14.70;;;;;;;;;;4929016;28;20086;-70
2024/01/06 09:20:53;;;;;;;27.73;11.05;;;;;;;;;;4931253;28;20073;-69
2024/01/06 09:23:19;;;;;;;31.70;12.05;;;;;;;;;;4932698;28;20027;-70
2024/01/06 09:25:44;;;;;;;30.98;11.88;;;;;;;;;;4930632;28;20024;-70
2024/01/06 09:28:10;;;;;;;29.42;10.13;;;;;;;;;;4930955;28;20031;-69
2024/01/06 09:30:37;;;;;;;26.50;10.23;;;;;;;;;;4934683;28;20028;-70
2024/01/06 09:33:02;;;;;;;31.48;10.60;;;;;;;;;;4930736;28;20024;-69
2024/01/06 09:35:27;;;;;;;29.75;10.32;;;;;;;;;;4931444;28;20028;-70
2024/01/06 09:37:52;;;;;;;25.23;9.03;;;;;;;;;;4939739;28;20035;-69
2024/01/06 09:40:24;;;;;;;28.77;9.52;;;;;;;;;;4932841;28;20290;-70
2024/01/06 09:42:49;;;;;;;23.83;8.23;;;;;;;;;;4932088;28;20039;-69
2024/01/06 09:45:15;;;;;;;24.50;8.68;;;;;;;;;;4934647;28;20020;-69
2024/01/06 09:47:40;;;;;;;30.52;8.95;;;;;;;;;;4930870;28;20024;-69
2024/01/06 09:50:09;;;;;;;29.38;12.32;;;;;;;;;;4931555;28;20028;-69
2024/01/06 09:52:36;;;;;;;27.80;9.40;;;;;;;;;;4930708;28;20099;-69
2024/01/06 09:55:02;;;;;;;22.25;8.88;;;;;;;;;;4930157;28;20439;-69
2024/01/06 09:57:27;;;;;;;26.35;10.27;;;;;;;;;;4930526;28;20066;-69
2024/01/06 09:59:52;;;;;;;34.55;10.23;;;;;;;;;;4932212;28;20078;-69
2024/01/06 10:02:18;;;;;;;31.67;10.07;;;;;;;;;;4931367;28;20103;-69
2024/01/06 10:04:44;;;;;;;28.65;9.48;;;;;;;;;;4930708;28;20236;-69
2024/01/06 10:07:12;;;;;;;31.55;9.75;;;;;;;;;;4931474;28;20441;-69
2024/01/06 10:09:37;;;;;;;29.30;9.70;;;;;;;;;;4927400;28;20301;-69
2024/01/06 10:12:02;;;;;;;28.95;10.00;;;;;;;;;;4931142;28;20481;-69
2024/01/06 10:14:28;;;;;;;32.63;10.02;;;;;;;;;;4930239;28;20023;-69
2024/01/06 10:16:53;;;;;;;29.40;9.70;;;;;;;;;;4930707;28;20030;-70
2024/01/06 10:19:18;;;;;;;28.13;10.48;;;;;;;;;;4928275;28;20622;-69
2024/01/06 10:21:44;;;;;;;25.02;9.45;;;;;;;;;;4930128;28;20028;-69
2024/01/06 10:24:10;;;;;;;26.38;9.80;;;;;;;;;;4930482;28;20490;-69
2024/01/06 10:26:35;;;;;;;37.00;11.32;;;;;;;;;;4927572;28;20023;-69
2024/01/06 10:29:00;;;;;;;28.45;11.55;;;;;;;;;;4929721;28;20103;-69
2024/01/06 10:31:26;;;;;;;31.10;11.35;;;;;;;;;;4930142;28;20043;-69
2024/01/06 10:33:51;;;;;;;29.05;11.85;;;;;;;;;;4930814;28;20107;-69
2024/01/06 10:36:17;;;;;;;33.95;11.93;;;;;;;;;;4930957;28;20028;-69
2024/01/06 10:38:42;;;;;;;34.47;12.40;;;;;;;;;;4927907;28;20035;-69
2024/01/06 10:41:09;;;;;;;37.47;12.52;;;;;;;;;;4930250;28;20047;-69
2024/01/06 10:43:37;;;;;;;32.65;11.68;;;;;;;;;;4928225;28;20103;-69
2024/01/06 10:46:04;;;;;;;37.38;13.90;;;;;;;;;;4931927;28;20035;-69
2024/01/06 10:48:31;;;;;;;38.38;13.45;;;;;;;;;;4930797;28;20035;-69
2024/01/06 10:50:58;;;;;;;41.92;14.63;;;;;;;;;;4928608;28;20455;-69
2024/01/06 10:53:23;;;;;;;40.42;14.00;;;;;;;;;;4927330;28;20024;-69
2024/01/06 10:55:49;;;;;;;41.08;14.88;;;;;;;;;;4933998;28;20114;-69
2024/01/06 10:58:16;;;;;;;42.60;15.15;;;;;;;;;;4959823;28;20034;-69
2024/01/06 11:00:41;;;;;;;48.55;14.82;;;;;;;;;;4933956;28;20012;-69
2024/01/06 11:03:06;;;;;;;38.45;16.02;;;;;;;;;;4935449;28;20034;-69
2024/01/06 11:05:32;;;;;;;48.15;14.77;;;;;;;;;;4939260;28;20398;-69
2024/01/06 11:08:00;;;;;;;45.90;16.02;;;;;;;;;;4933169;28;20103;-69
2024/01/06 11:10:29;;;;;;;50.97;16.08;;;;;;;;;;4933729;28;20028;-69
2024/01/06 11:13:11;;;;;;;49.17;17.25;;;;;;;;;;4935332;28;20093;-69
2024/01/06 11:15:52;;;;;;;53.45;18.52;;;;;;;;;;4929249;28;20459;-69
2024/01/06 11:18:40;;;;;;;54.15;17.70;;;;;;;;;;4932785;28;20113;-69
2024/01/06 11:21:23;;;;;;;56.78;18.48;;;;;;;;;;4935251;28;20015;-69
2024/01/06 11:24:09;;;;;;;61.70;18.58;;;;;;;;;;4933927;28;20097;-69
2024/01/06 11:26:38;;;;;;;50.30;17.63;;;;;;;;;;4929302;28;20086;-69
2024/01/06 11:29:03;;;;;;;51.25;17.33;;;;;;;;;;4933960;28;20027;-69
2024/01/06 11:31:30;;;;;;;53.22;16.15;;;;;;;;;;4932959;28;20023;-69
2024/01/06 11:33:55;;;;;;;44.38;14.40;;;;;;;;;;4935051;28;20051;-70
2024/01/06 11:36:21;;;;;;;45.63;14.60;;;;;;;;;;4933962;28;20043;-69
2024/01/06 11:38:50;;;;;;;55.47;16.77;;;;;;;;;;4931764;28;20032;-69
2024/01/06 11:41:35;;;;;;;40.93;15.37;;;;;;;;;;4932788;28;20795;-70
2024/01/06 11:44:00;;;;;;;53.10;15.30;;;;;;;;;;4931951;28;20274;-69
2024/01/06 11:46:26;;;;;;;46.70;16.23;;;;;;;;;;4933725;28;20016;-69
2024/01/06 11:48:53;;;;;;;44.92;15.30;;;;;;;;;;4936794;28;20264;-70
2024/01/06 11:51:18;;;;;;;51.80;17.48;;;;;;;;;;4936273;28;20050;-69
2024/01/06 11:53:43;;;;;;;54.05;18.30;;;;;;;;;;4933879;28;20031;-69
2024/01/06 11:56:09;;;;;;;54.33;18.00;;;;;;;;;;4933593;28;20059;-69
2024/01/06 11:58:34;;;;;;;56.67;19.47;;;;;;;;;;4939507;28;20454;-69
2024/01/06 12:00:59;;;;;;;61.72;19.35;;;;;;;;;;4933143;28;20298;-69
2024/01/06 12:03:26;;;;;;;58.67;18.13;;;;;;;;;;4933400;28;20020;-69
2024/01/06 12:06:02;;;;;;;61.20;20.58;;;;;;;;;;4933321;28;20390;-69
2024/01/06 12:08:28;;;;;;;53.17;17.50;;;;;;;;;;4931823;28;20027;-69
2024/01/06 12:11:01;;;;;;;61.47;16.08;;;;;;;;;;4933445;28;20103;-69
2024/01/06 12:13:26;;;;;;;56.40;16.15;;;;;;;;;;4930938;28;20032;-69
2024/01/06 12:15:52;;;;;;;51.93;15.97;;;;;;;;;;4934180;28;20078;-69
2024/01/06 12:18:17;;;;;;;53.05;16.77;;;;;;;;;;4933966;28;20361;-69
2024/01/06 12:20:42;;;;;;;55.80;18.40;;;;;;;;;;4933363;28;20020;-69
2024/01/06 12:23:07;;;;;;;52.38;17.25;;;;;;;;;;4934774;28;20027;-69
2024/01/06 12:25:35;;;;;;;55.23;16.23;;;;;;;;;;4933577;28;20071;-69
2024/01/06 12:28:01;;;;;;;64.43;20.58;;;;;;;;;;4940445;28;20279;-70
2024/01/06 12:30:27;;;;;;;55.58;17.13;;;;;;;;;;4931058;28;20024;-70
2024/01/06 12:32:53;;;;;;;65.72;18.50;;;;;;;;;;4951750;28;20026;-69
2024/01/06 12:35:19;;;;;;;72.28;17.70;;;;;;;;;;4931515;28;20161;-69
2024/01/06 12:37:45;;;;;;;65.35;18.17;;;;;;;;;;4933334;28;20093;-69
2024/01/06 12:40:11;;;;;;;58.22;18.73;;;;;;;;;;4928770;28;20478;-69
2024/01/06 12:42:37;;;;;;;71.20;19.00;;;;;;;;;;4932880;28;20036;-69
2024/01/06 12:45:03;;;;;;;65.20;19.48;;;;;;;;;;4932839;28;20024;-69
2024/01/06 12:47:28;;;;;;;61.20;18.58;;;;;;;;;;4932473;28;20020;-69
2024/01/06 12:49:53;;;;;;;57.03;17.80;;;;;;;;;;4933319;28;20651;-69
2024/01/06 12:52:18;;;;;;;58.90;18.77;;;;;;;;;;4932188;28;20054;-69
2024/01/06 12:54:43;;;;;;;68.97;22.95;;;;;;;;;;4931893;28;20260;-69
2024/01/06 12:57:09;;;;;;;46.40;17.83;;;;;;;;;;4934309;28;20028;-69
2024/01/06 12:59:34;;;;;;;60.05;17.10;;;;;;;;;;4931942;28;20035;-69
2024/01/06 13:01:59;;;;;;;48.50;17.15;;;;;;;;;;4931636;28;20027;-69
2024/01/06 13:04:25;;;;;;;49.60;17.17;;;;;;;;;;4932862;28;20479;-70
2024/01/06 13:06:50;;;;;;;66.33;24.60;;;;;;;;;;4932766;28;20276;-70
2024/01/06 13:09:18;;;;;;;69.78;21.00;;;;;;;;;;4932440;28;20321;-69
2024/01/06 13:11:46;;;;;;;79.65;23.95;;;;;;;;;;4932615;28;20023;-69
2024/01/06 13:14:11;;;;;;;57.20;21.88;;;;;;;;;;4933233;28;20015;-69
2024/01/06 13:16:36;;;;;;;71.93;23.40;;;;;;;;;;4929997;28;20046;-70
2024/01/06 13:19:02;;;;;;;64.83;24.00;;;;;;;;;;4930841;28;20526;-70
2024/01/06 13:21:28;;;;;;;71.28;24.25;;;;;;;;;;4929935;28;20288;-69
2024/01/06 13:23:53;;;;;;;77.20;24.42;;;;;;;;;;4936612;28;20099;-69
2024/01/06 13:26:19;;;;;;;77.97;24.10;;;;;;;;;;4932891;28;20098;-69
2024/01/06 13:28:44;;;;;;;60.47;21.27;;;;;;;;;;4932290;28;20105;-69
2024/01/06 13:31:09;;;;;;;65.75;19.85;;;;;;;;;;4934763;28;20353;-69
2024/01/06 13:33:34;;;;;;;54.15;19.77;;;;;;;;;;4930910;28;20066;-69
2024/01/06 13:36:00;;;;;;;58.85;20.73;;;;;;;;;;4934108;28;20020;-70
2024/01/06 13:38:26;;;;;;;52.47;18.02;;;;;;;;;;4931841;28;20016;-69
2024/01/06 13:40:52;;;;;;;55.97;19.98;;;;;;;;;;4933004;28;20111;-69
2024/01/06 13:43:17;;;;;;;60.72;20.23;;;;;;;;;;4942993;28;20099;-69
2024/01/06 13:45:44;;;;;;;57.50;19.90;;;;;;;;;;4935777;28;20580;-69
2024/01/06 13:48:09;;;;;;;50.17;20.90;;;;;;;;;;4931966;28;20019;-69
2024/01/06 13:50:34;;;;;;;62.63;21.55;;;;;;;;;;4930973;28;20019;-70
2024/01/06 13:53:02;;;;;;;57.30;21.37;;;;;;;;;;4934902;28;20028;-69
2024/01/06 13:55:27;;;;;;;67.05;24.35;;;;;;;;;;4928267;28;20260;-69
2024/01/06 13:57:52;;;;;;;72.23;22.57;;;;;;;;;;4932291;28;20046;-69
2024/01/06 14:00:19;;;;;;;65.45;21.40;;;;;;;;;;4931418;28;20290;-69
2024/01/06 14:02:46;;;;;;;56.88;21.80;;;;;;;;;;4932072;28;20060;-69
2024/01/06 14:05:12;;;;;;;59.10;20.83;;;;;;;;;;4937384;28;20020;-69
2024/01/06 14:07:39;;;;;;;59.63;21.02;;;;;;;;;;4932472;28;20433;-69
2024/01/06 14:10:04;;;;;;;67.18;22.35;;;;;;;;;;4932564;28;20066;-69
2024/01/06 14:12:31;;;;;;;63.92;21.13;;;;;;;;;;4932845;28;20055;-69